Time;durP1;ratioP1;P1;durP2;ratioP2;P2;SDS_P1;SDS_P2;PMS_P1;PMS_P2;Temp;Humidity;BMP_temperature;BMP_pressure;BME280_temperature;BME280_humidity;BME280_pressure;Samples;Min_cycle;Max_cycle;Signal;HPM_P1;HPM_P2
2022/05/05 00:00:33;;;;;;;;;;;;;;;15.85;48.09;101515.94;5010432;28;20416;-57
2022/05/05 00:02:58;;;;;;;;;;;;;;;15.81;48.25;101514.41;5023067;28;19964;-56
2022/05/05 00:05:23;;;;;;;;;;;;;;;15.78;48.51;101511.13;5023877;28;19925;-59
2022/05/05 00:07:49;;;;;;;;;;;;;;;15.75;48.30;101517.50;5024134;28;20556;-59
2022/05/05 00:15:42;;;;;;;;;;;;;;;15.64;48.47;101514.72;5026557;28;20396;-58
2022/05/05 00:18:07;;;;;;;;;;;;;;;15.59;48.56;101525.59;5026047;28;19921;-59
2022/05/05 00:20:32;;;;;;;;;;;;;;;15.55;48.79;101519.66;5023265;28;20277;-59
2022/05/05 00:22:58;;;;;;;;;;;;;;;15.53;48.71;101518.91;5028116;28;19921;-59
2022/05/05 00:25:23;;;;;;;;;;;;;;;15.51;48.78;101526.13;5018248;28;19991;-57
2022/05/05 00:27:48;;;;;;;;;;;;;;;15.49;48.67;101528.06;5022589;28;20296;-57
2022/05/05 00:30:14;;;;;;;;;;;;;;;15.45;48.75;101523.88;5024895;28;20003;-58
2022/05/05 00:32:39;;;;;;;;;;;;;;;15.44;48.89;101514.22;5027170;28;20052;-59
2022/05/05 00:35:04;;;;;;;;;;;;;;;15.43;49.18;101522.31;5024551;28;19928;-59
2022/05/05 00:37:30;;;;;;;;;;;;;;;15.44;49.13;101519.53;5027533;28;19919;-59
2022/05/05 00:39:55;;;;;;;;;;;;;;;15.45;49.19;101518.59;5028988;28;19939;-57
2022/05/05 00:42:21;;;;;;;;;;;;;;;15.42;49.17;101516.13;5027369;28;19960;-60
2022/05/05 00:44:46;;;;;;;;;;;;;;;15.40;49.51;101531.28;5023986;28;19928;-59
2022/05/05 00:47:16;;;;;;;;;;;;;;;15.39;49.43;101516.31;5020803;28;20280;-59
2022/05/05 00:49:42;;;;;;;;;;;;;;;15.31;50.26;101506.22;5025061;28;20284;-57
2022/05/05 00:52:07;;;;;;;;;;;;;;;15.27;49.95;101504.75;5029026;28;20387;-59
2022/05/05 00:54:33;;;;;;;;;;;;;;;15.26;49.98;101503.03;4977773;28;1279478;-60
2022/05/05 00:56:59;;;;;;;;;;;;;;;15.28;50.02;101501.13;5024651;28;19925;-58
2022/05/05 00:59:24;;;;;;;;;;;;;;;15.33;50.12;101506.97;5025458;28;19921;-58
2022/05/05 01:01:49;;;;;;;;;;;;;;;15.33;50.38;101500.84;5026351;28;20392;-56
2022/05/05 01:04:15;;;;;;;;;;;;;;;15.29;50.32;101508.13;5023171;28;19929;-59
2022/05/05 01:06:41;;;;;;;;;;;;;;;15.24;50.65;101508.44;5027328;28;19967;-59
2022/05/05 01:09:06;;;;;;;;;;;;;;;15.20;50.79;101506.91;5023084;28;19917;-58
2022/05/05 01:11:32;;;;;;;;;;;;;;;15.14;50.94;101514.41;5025585;28;19921;-58
2022/05/05 01:13:57;;;;;;;;;;;;;;;15.04;51.46;101519.50;5023880;28;20034;-59
2022/05/05 01:16:23;;;;;;;;;;;;;;;15.00;51.64;101515.34;5022833;28;19979;-57
2022/05/05 01:18:51;;;;;;;;;;;;;;;14.98;51.61;101514.56;5025277;28;20393;-56
2022/05/05 01:21:19;;;;;;;;;;;;;;;14.98;51.98;101509.28;5022801;28;20416;-55
2022/05/05 01:23:44;;;;;;;;;;;;;;;14.98;51.70;101517.22;5024484;28;20543;-58
2022/05/05 01:28:54;;;;;;;;;;;;;;;14.94;51.77;101512.13;5025744;28;19928;-59
2022/05/05 01:31:19;;;;;;;;;;;;;;;14.97;51.95;101512.88;5023576;28;19917;-58
2022/05/05 01:33:45;;;;;;;;;;;;;;;14.99;51.83;101518.94;5026559;28;19917;-59
2022/05/05 01:36:11;;;;;;;;;;;;;;;14.96;51.92;101509.38;5021885;28;19916;-59
2022/05/05 01:38:36;;;;;;;;;;;;;;;14.90;52.36;101509.75;5020675;28;19925;-59
2022/05/05 01:41:03;;;;;;;;;;;;;;;14.83;52.64;101511.97;5025298;28;19921;-55
2022/05/05 01:43:28;;;;;;;;;;;;;;;14.81;52.46;101510.38;5024945;28;19967;-58
2022/05/05 01:45:53;;;;;;;;;;;;;;;14.79;52.67;101515.75;5017368;28;19952;-59
2022/05/05 01:48:18;;;;;;;;;;;;;;;14.71;52.96;101508.28;5022168;28;19923;-58
2022/05/05 01:50:44;;;;;;;;;;;;;;;14.68;53.59;101510.28;5022672;28;20258;-59
2022/05/05 01:53:10;;;;;;;;;;;;;;;14.66;54.15;101512.13;5025216;28;19990;-58
2022/05/05 01:55:35;;;;;;;;;;;;;;;14.62;53.65;101508.84;5020783;28;19926;-59
2022/05/05 01:58:01;;;;;;;;;;;;;;;14.64;53.55;101505.13;5024496;28;20008;-59
2022/05/05 02:00:26;;;;;;;;;;;;;;;14.66;53.42;101506.84;5022801;28;19924;-59
2022/05/05 02:02:52;;;;;;;;;;;;;;;14.66;53.86;101509.50;5027809;28;19929;-60
2022/05/05 02:05:17;;;;;;;;;;;;;;;14.67;53.36;101508.53;5025805;28;19917;-59
2022/05/05 02:07:43;;;;;;;;;;;;;;;14.67;53.73;101508.53;5028741;28;20440;-57
2022/05/05 02:10:10;;;;;;;;;;;;;;;14.62;53.72;101512.31;5022884;28;19983;-57
2022/05/05 02:12:38;;;;;;;;;;;;;;;14.55;54.17;101510.16;5020002;28;19917;-59
2022/05/05 02:15:06;;;;;;;;;;;;;;;14.50;54.47;101513.09;5022939;28;19917;-58
2022/05/05 02:17:31;;;;;;;;;;;;;;;14.48;54.17;101520.28;5025487;28;19917;-56
2022/05/05 02:19:56;;;;;;;;;;;;;;;14.44;54.70;101516.97;5020760;28;20011;-57
2022/05/05 02:22:22;;;;;;;;;;;;;;;14.42;54.62;101520.69;5024319;28;19963;-59
2022/05/05 02:24:47;;;;;;;;;;;;;;;14.40;55.00;101527.84;5023609;28;20495;-54
2022/05/05 02:27:12;;;;;;;;;;;;;;;14.34;55.20;101529.09;5027559;28;19917;-58
2022/05/05 02:29:38;;;;;;;;;;;;;;;14.29;56.39;101526.69;5024656;28;19975;-58
2022/05/05 02:32:03;;;;;;;;;;;;;;;14.23;56.18;101526.22;5028144;28;19939;-60
2022/05/05 02:34:28;;;;;;;;;;;;;;;14.15;56.42;101531.97;5025519;28;19924;-58
2022/05/05 02:39:37;;;;;;;;;;;;;;;14.13;56.97;101529.44;5008640;28;19924;-56
2022/05/05 02:42:03;;;;;;;;;;;;;;;14.12;57.40;101537.47;5023006;28;19917;-55
2022/05/05 02:44:28;;;;;;;;;;;;;;;14.08;57.51;101528.84;5023778;28;19923;-54
2022/05/05 02:46:54;;;;;;;;;;;;;;;14.07;57.54;101531.59;5031801;28;19923;-57
2022/05/05 02:49:19;;;;;;;;;;;;;;;13.98;57.63;101539.16;5024102;28;19940;-57
2022/05/05 02:51:45;;;;;;;;;;;;;;;13.85;59.41;101530.22;5018906;28;19917;-59
2022/05/05 02:56:54;;;;;;;;;;;;;;;13.60;60.34;101533.47;5019404;28;19919;-55
2022/05/05 02:59:20;;;;;;;;;;;;;;;13.52;60.78;101531.28;5026573;28;19916;-59
2022/05/05 03:01:46;;;;;;;;;;;;;;;13.48;61.45;101525.28;5027116;28;19917;-59
2022/05/05 03:04:11;;;;;;;;;;;;;;;13.53;60.42;101543.56;5025337;28;19998;-59
2022/05/05 03:06:36;;;;;;;;;;;;;;;13.55;60.43;101529.31;5023990;28;19952;-59
2022/05/05 03:09:02;;;;;;;;;;;;;;;13.57;60.29;101526.56;5023463;28;19920;-58
2022/05/05 03:11:27;;;;;;;;;;;;;;;13.57;60.41;101530.06;5024252;28;20026;-57
2022/05/05 03:13:52;;;;;;;;;;;;;;;13.59;60.43;101540.53;5025841;28;19909;-56
2022/05/05 03:16:18;;;;;;;;;;;;;;;13.60;60.31;101550.19;5029245;28;19921;-58
2022/05/05 03:18:43;;;;;;;;;;;;;;;13.56;60.66;101549.50;5028826;28;19909;-59
2022/05/05 03:21:08;;;;;;;;;;;;;;;13.44;62.08;101541.41;5028065;28;19917;-59
2022/05/05 03:23:34;;;;;;;;;;;;;;;13.44;61.43;101549.34;5029029;28;19925;-59
2022/05/05 03:25:59;;;;;;;;;;;;;;;13.40;61.72;101552.16;5024151;28;20077;-60
2022/05/05 03:28:24;;;;;;;;;;;;;;;13.41;61.67;101545.09;5025875;28;19916;-59
2022/05/05 03:30:50;;;;;;;;;;;;;;;13.39;62.01;101560.16;5029372;28;19948;-58
2022/05/05 03:33:15;;;;;;;;;;;;;;;13.43;61.65;101559.09;5009612;28;19967;-59
2022/05/05 03:35:40;;;;;;;;;;;;;;;13.49;61.24;101568.47;5029274;28;19929;-59
2022/05/05 03:38:06;;;;;;;;;;;;;;;13.53;60.99;101570.00;5024318;28;21623;-58
2022/05/05 03:40:31;;;;;;;;;;;;;;;13.53;61.18;101567.34;5024118;28;20305;-58
2022/05/05 03:42:57;;;;;;;;;;;;;;;13.51;61.90;101563.94;5025388;28;19925;-56
2022/05/05 03:45:23;;;;;;;;;;;;;;;13.46;62.22;101573.91;5027099;28;19921;-58
2022/05/05 03:47:49;;;;;;;;;;;;;;;13.39;62.24;101573.38;5026483;28;19943;-58
2022/05/05 03:50:14;;;;;;;;;;;;;;;13.34;62.94;101576.28;5028383;28;20004;-57
2022/05/05 03:52:40;;;;;;;;;;;;;;;13.28;63.52;101576.63;5026694;28;19970;-57
2022/05/05 03:55:05;;;;;;;;;;;;;;;13.21;63.91;101569.97;5028069;28;20341;-58
2022/05/05 03:57:30;;;;;;;;;;;;;;;13.14;65.00;101572.13;5028638;28;19998;-56
2022/05/05 03:59:56;;;;;;;;;;;;;;;13.08;64.70;101578.56;5021727;28;20016;-56
2022/05/05 04:02:21;;;;;;;;;;;;;;;13.07;64.24;101581.31;5003943;28;19956;-56
2022/05/05 04:04:46;;;;;;;;;;;;;;;13.04;64.41;101577.06;5025487;28;19913;-56
2022/05/05 04:07:12;;;;;;;;;;;;;;;13.02;64.37;101576.28;5022578;28;19917;-58
2022/05/05 04:09:37;;;;;;;;;;;;;;;13.02;64.22;101568.34;5016447;28;19999;-56
2022/05/05 04:12:02;;;;;;;;;;;;;;;13.00;65.12;101577.31;5018674;28;20316;-57
2022/05/05 04:14:28;;;;;;;;;;;;;;;12.99;64.63;101570.31;5022671;28;19920;-57
2022/05/05 04:16:53;;;;;;;;;;;;;;;12.99;65.14;101576.44;5024946;28;19924;-56
2022/05/05 04:19:19;;;;;;;;;;;;;;;13.04;64.55;101574.41;5021686;28;19975;-58
2022/05/05 04:21:44;;;;;;;;;;;;;;;13.08;64.28;101578.56;5014430;28;19924;-56
2022/05/05 04:24:09;;;;;;;;;;;;;;;13.07;64.64;101576.88;5018960;28;20288;-57
2022/05/05 04:26:35;;;;;;;;;;;;;;;13.04;64.40;101573.53;5023429;28;20523;-56
2022/05/05 04:29:01;;;;;;;;;;;;;;;13.06;64.27;101585.75;5002808;28;19920;-54
2022/05/05 04:31:27;;;;;;;;;;;;;;;13.05;64.32;101588.47;5012345;28;19913;-55
2022/05/05 04:33:52;;;;;;;;;;;;;;;13.00;64.36;101583.44;5017924;28;19932;-58
2022/05/05 04:36:18;;;;;;;;;;;;;;;12.96;65.17;101581.88;5018062;28;19921;-53
2022/05/05 04:38:44;;;;;;;;;;;;;;;12.93;64.89;101597.94;5021232;28;19975;-50
2022/05/05 04:41:09;;;;;;;;;;;;;;;12.93;65.10;101585.56;5021467;28;19921;-52
2022/05/05 04:43:34;;;;;;;;;;;;;;;12.98;64.49;101585.31;5018958;28;19940;-52
2022/05/05 04:46:00;;;;;;;;;;;;;;;13.06;64.02;101595.44;5015672;28;19928;-50
2022/05/05 04:48:25;;;;;;;;;;;;;;;13.07;63.91;101590.09;5023054;28;19913;-55
2022/05/05 04:50:50;;;;;;;;;;;;;;;13.10;63.98;101589.06;5027507;28;19932;-55
2022/05/05 04:53:16;;;;;;;;;;;;;;;13.08;64.07;101585.66;5027093;28;20503;-52
2022/05/05 04:55:41;;;;;;;;;;;;;;;13.03;64.09;101592.97;5022402;28;20373;-52
2022/05/05 04:58:06;;;;;;;;;;;;;;;13.05;63.90;101597.25;5025804;28;19917;-52
2022/05/05 05:00:33;;;;;;;;;;;;;;;13.08;64.00;101607.63;5024199;28;19924;-57
2022/05/05 05:02:58;;;;;;;;;;;;;;;13.14;63.76;101617.03;5025908;28;19928;-54
2022/05/05 05:05:23;;;;;;;;;;;;;;;13.17;63.50;101634.50;5028179;28;19921;-53
2022/05/05 05:07:49;;;;;;;;;;;;;;;13.18;63.45;101639.69;5017786;28;20258;-51
2022/05/05 05:10:14;;;;;;;;;;;;;;;13.25;63.25;101650.78;5025052;28;19925;-52
2022/05/05 05:12:40;;;;;;;;;;;;;;;13.28;63.15;101647.97;5024378;28;19917;-56
2022/05/05 05:15:05;;;;;;;;;;;;;;;13.30;62.84;101632.91;5022871;28;20381;-53
2022/05/05 05:17:31;;;;;;;;;;;;;;;13.27;62.95;101633.94;5024106;28;19978;-51
2022/05/05 05:19:56;;;;;;;;;;;;;;;13.26;63.04;101634.00;5022519;28;19925;-55
2022/05/05 05:22:22;;;;;;;;;;;;;;;13.15;63.95;101636.38;5024331;28;20010;-52
2022/05/05 05:24:47;;;;;;;;;;;;;;;13.14;63.54;101637.31;5018949;28;19951;-55
2022/05/05 05:27:12;;;;;;;;;;;;;;;13.19;63.55;101645.84;5016342;28;19960;-55
2022/05/05 05:29:38;;;;;;;;;;;;;;;13.17;63.67;101635.34;5023345;28;19917;-53
2022/05/05 05:32:03;;;;;;;;;;;;;;;13.20;63.29;101634.34;5015917;28;19967;-58
2022/05/05 05:34:29;;;;;;;;;;;;;;;13.25;63.33;101642.84;5027400;28;19921;-57
2022/05/05 05:36:54;;;;;;;;;;;;;;;13.24;63.32;101638.50;5025706;28;19956;-62
2022/05/05 05:39:20;;;;;;;;;;;;;;;13.21;63.28;101650.09;5006204;28;20027;-50
2022/05/05 05:41:45;;;;;;;;;;;;;;;13.16;63.55;101638.09;5026114;28;19917;-56
2022/05/05 05:44:11;;;;;;;;;;;;;;;13.10;63.68;101648.03;5020683;28;19921;-52
2022/05/05 05:46:36;;;;;;;;;;;;;;;13.05;64.48;101650.09;5016446;28;19917;-50
2022/05/05 05:49:02;;;;;;;;;;;;;;;13.06;64.38;101657.09;5021189;28;20289;-55
2022/05/05 05:51:27;;;;;;;;;;;;;;;13.02;64.61;101658.19;5009178;28;20300;-54
2022/05/05 05:53:53;;;;;;;;;;;;;;;12.93;65.03;101651.59;5012693;28;19936;-50
2022/05/05 05:56:18;;;;;;;;;;;;;;;12.94;65.28;101663.00;5013648;28;20392;-52
2022/05/05 05:58:43;;;;;;;;;;;;;;;12.97;64.81;101665.50;5022027;28;19925;-55
2022/05/05 06:01:09;;;;;;;;;;;;;;;13.02;64.56;101665.25;5024142;28;19924;-53
2022/05/05 06:06:18;;;;;;;;;;;;;;;12.91;65.50;101642.06;5019666;28;20303;-53
2022/05/05 06:08:44;;;;;;;;;;;;;;;12.87;65.61;101640.50;5021538;28;19921;-50
2022/05/05 06:11:11;;;;;;;;;;;;;;;12.82;65.97;101646.03;5021897;28;19936;-52
2022/05/05 06:13:36;;;;;;;;;;;;;;;12.73;66.49;101649.16;5023913;28;19917;-54
2022/05/05 06:16:02;;;;;;;;;;;;;;;12.76;66.27;101654.28;5017212;28;19926;-51
2022/05/05 06:18:27;;;;;;;;;;;;;;;12.80;66.23;101667.22;5016722;28;19913;-50
2022/05/05 06:20:53;;;;;;;;;;;;;;;12.80;65.95;101669.03;5015298;28;19966;-55
2022/05/05 06:23:18;;;;;;;;;;;;;;;12.79;66.28;101670.81;5021824;28;19929;-56
2022/05/05 06:25:44;;;;;;;;;;;;;;;12.79;66.02;101664.69;5018785;28;19913;-58
2022/05/05 06:28:09;;;;;;;;;;;;;;;12.81;65.71;101663.66;5017988;28;20391;-55
2022/05/05 06:30:34;;;;;;;;;;;;;;;12.86;65.68;101673.13;5026247;28;19920;-56
2022/05/05 06:33:00;;;;;;;;;;;;;;;12.87;65.59;101667.75;5024983;28;19928;-58
2022/05/05 06:35:25;;;;;;;;;;;;;;;12.90;65.98;101672.03;5017870;28;19975;-58
2022/05/05 06:37:51;;;;;;;;;;;;;;;12.85;65.87;101680.22;5018288;28;21690;-57
2022/05/05 06:40:17;;;;;;;;;;;;;;;12.84;65.90;101688.19;5025399;28;19916;-59
2022/05/05 06:42:42;;;;;;;;;;;;;;;12.88;65.75;101689.75;5022978;28;19928;-59
2022/05/05 06:45:08;;;;;;;;;;;;;;;12.95;65.44;101688.50;5016486;28;19933;-57
2022/05/05 06:47:33;;;;;;;;;;;;;;;13.06;65.31;101699.38;5016473;28;19917;-56
2022/05/05 06:49:58;;;;;;;;;;;;;;;13.18;65.12;101705.75;5019975;28;20630;-56
2022/05/05 06:52:24;;;;;;;;;;;;;;;13.25;64.82;101711.56;5018361;28;19927;-54
2022/05/05 06:54:49;;;;;;;;;;;;;;;13.35;64.58;101714.56;5024944;28;19921;-56
2022/05/05 06:57:14;;;;;;;;;;;;;;;13.40;64.46;101716.06;5019763;28;19925;-57
2022/05/05 06:59:40;;;;;;;;;;;;;;;13.47;64.37;101723.69;5022877;28;19924;-58
2022/05/05 07:02:05;;;;;;;;;;;;;;;13.53;64.16;101728.66;5024814;28;20357;-57
2022/05/05 07:07:15;;;;;;;;;;;;;;;13.56;64.22;101733.75;5021962;28;20446;-58
2022/05/05 07:12:25;;;;;;;;;;;;;;;13.53;64.00;101728.66;5024758;28;19989;-58
2022/05/05 07:14:51;;;;;;;;;;;;;;;13.52;63.79;101717.19;5003036;28;20388;-58
2022/05/05 07:17:16;;;;;;;;;;;;;;;13.50;64.02;101718.22;5015303;28;19917;-57
2022/05/05 07:19:41;;;;;;;;;;;;;;;13.53;63.85;101718.06;5014443;28;19967;-59
2022/05/05 07:22:07;;;;;;;;;;;;;;;13.53;64.51;101726.00;5025583;28;20634;-57
2022/05/05 07:24:33;;;;;;;;;;;;;;;13.54;64.17;101725.91;5017352;28;20612;-55
2022/05/05 07:26:59;;;;;;;;;;;;;;;13.59;64.15;101732.75;5022111;28;19916;-55
2022/05/05 07:29:24;;;;;;;;;;;;;;;13.64;64.05;101728.91;5022939;28;19928;-57
2022/05/05 07:31:49;;;;;;;;;;;;;;;13.68;63.79;101738.38;5021762;28;19921;-56
2022/05/05 07:34:15;;;;;;;;;;;;;;;13.75;63.48;101738.03;5021829;28;20355;-57
2022/05/05 07:36:40;;;;;;;;;;;;;;;13.84;63.52;101737.53;5017250;28;20043;-56
2022/05/05 07:39:06;;;;;;;;;;;;;;;13.92;63.17;101732.66;5014647;28;19924;-57
2022/05/05 07:41:31;;;;;;;;;;;;;;;14.03;62.83;101738.19;4993243;28;20019;-55
2022/05/05 07:43:57;;;;;;;;;;;;;;;14.11;62.27;101735.09;5023697;28;19921;-56
2022/05/05 07:46:23;;;;;;;;;;;;;;;14.13;62.10;101727.94;5021937;28;19921;-54
2022/05/05 07:48:49;;;;;;;;;;;;;;;14.15;61.65;101735.78;5022729;28;19917;-56
2022/05/05 07:51:14;;;;;;;;;;;;;;;14.12;61.54;101736.81;5005898;28;19928;-56
2022/05/05 07:53:39;;;;;;;;;;;;;;;14.13;61.70;101742.97;5023405;28;20412;-56
2022/05/05 07:56:04;;;;;;;;;;;;;;;14.16;61.20;101750.72;5024563;28;19913;-55
2022/05/05 07:58:30;;;;;;;;;;;;;;;14.13;60.95;101753.56;5012047;28;19917;-57
2022/05/05 08:00:55;;;;;;;;;;;;;;;14.08;60.91;101751.16;5011263;28;19929;-52
2022/05/05 08:03:20;;;;;;;;;;;;;;;14.12;60.90;101751.84;5021169;28;19932;-56
2022/05/05 08:05:46;;;;;;;;;;;;;;;14.22;60.96;101763.63;5023349;28;20456;-55
2022/05/05 08:08:11;;;;;;;;;;;;;;;14.31;60.39;101752.50;5020574;28;20332;-57
2022/05/05 08:10:36;;;;;;;;;;;;;;;14.39;60.23;101753.84;5024987;28;19917;-56
2022/05/05 08:13:03;;;;;;;;;;;;;;;14.45;59.88;101761.41;5021252;28;19917;-54
2022/05/05 08:15:29;;;;;;;;;;;;;;;14.43;59.64;101756.22;5021316;28;19917;-57
2022/05/05 08:17:54;;;;;;;;;;;;;;;14.44;59.64;101763.22;5021693;28;20519;-54
2022/05/05 08:20:20;;;;;;;;;;;;;;;14.45;59.47;101758.78;5028313;28;19960;-58
2022/05/05 08:22:45;;;;;;;;;;;;;;;14.47;59.43;101768.34;5024876;28;20377;-57
2022/05/05 08:30:38;;;;;;;;;;;;;;;14.60;58.84;101779.06;5028248;28;20019;-59
2022/05/05 08:33:04;;;;;;;;;;;;;;;14.56;58.76;101777.56;5028872;28;20424;-56
2022/05/05 08:35:30;;;;;;;;;;;;;;;14.50;58.56;101777.06;5028619;28;19929;-57
2022/05/05 08:37:56;;;;;;;;;;;;;;;14.57;58.79;101794.28;5029285;28;19938;-58
2022/05/05 08:40:25;;;;;;;;;;;;;;;14.62;58.84;101801.03;5024595;28;19913;-57
2022/05/05 08:42:51;;;;;;;;;;;;;;;14.61;58.82;101796.66;5022664;28;20309;-58
2022/05/05 08:45:16;;;;;;;;;;;;;;;14.62;58.78;101795.72;5030072;28;19924;-56
2022/05/05 08:47:42;;;;;;;;;;;;;;;14.67;58.93;101806.06;5027790;28;19912;-58
2022/05/05 08:50:11;;;;;;;;;;;;;;;14.66;58.65;101814.97;5026776;28;19966;-58
2022/05/05 08:52:48;;;;;;;;;;;;;;;14.67;58.65;101815.81;5026846;28;19920;-54
2022/05/05 08:55:18;;;;;;;;;;;;;;;14.69;58.89;101819.25;5028436;28;19920;-58
2022/05/05 08:57:43;;;;;;;;;;;;;;;14.71;58.70;101818.22;5027855;28;19924;-58
2022/05/05 09:00:10;;;;;;;;;;;;;;;14.66;58.64;101822.03;5022527;28;19921;-57
2022/05/05 09:02:35;;;;;;;;;;;;;;;14.69;58.65;101817.44;5030997;28;19944;-56
2022/05/05 09:05:01;;;;;;;;;;;;;;;14.71;58.55;101815.56;5021612;28;20381;-54
2022/05/05 09:07:45;;;;;;;;;;;;;;;14.66;58.33;101814.09;5029451;28;19913;-55
2022/05/05 09:10:11;;;;;;;;;;;;;;;14.62;58.60;101824.88;5025585;28;19913;-59
2022/05/05 09:12:36;;;;;;;;;;;;;;;14.60;58.46;101828.56;5025205;28;19935;-56
2022/05/05 09:15:07;;;;;;;;;;;;;;;14.52;58.27;101818.41;5028796;28;20381;-54
2022/05/05 09:17:35;;;;;;;;;;;;;;;14.54;58.20;101821.81;5005446;28;19944;-57
2022/05/05 09:20:01;;;;;;;;;;;;;;;14.55;57.93;101828.81;5028650;28;19980;-55
2022/05/05 09:22:27;;;;;;;;;;;;;;;14.56;57.61;101825.25;5024837;28;20007;-53
2022/05/05 09:24:53;;;;;;;;;;;;;;;14.58;57.66;101826.00;5022881;28;19959;-51
2022/05/05 09:27:29;;;;;;;;;;;;;;;14.53;57.26;101832.47;5031268;28;19933;-51
2022/05/05 09:30:03;;;;;;;;;;;;;;;14.51;57.71;101831.75;5027296;28;19917;-56
2022/05/05 09:32:29;;;;;;;;;;;;;;;14.53;57.78;101835.13;5032700;28;20480;-52
2022/05/05 09:34:58;;;;;;;;;;;;;;;14.50;58.01;101837.97;5025212;28;19921;-53
2022/05/05 09:37:24;;;;;;;;;;;;;;;14.50;57.84;101854.72;5025895;28;19914;-51
2022/05/05 09:39:53;;;;;;;;;;;;;;;14.50;57.74;101862.66;5012822;28;19917;-58
2022/05/05 09:42:41;;;;;;;;;;;;;;;14.47;57.96;101857.53;5029783;28;19913;-57
2022/05/05 09:45:18;;;;;;;;;;;;;;;14.41;58.21;101858.72;5025322;28;19917;-50
2022/05/05 09:48:01;;;;;;;;;;;;;;;14.36;57.92;101855.50;5024450;28;19912;-52
2022/05/05 09:50:37;;;;;;;;;;;;;;;14.25;58.06;101855.22;5026817;28;20387;-50
2022/05/05 09:58:36;;;;;;;;;;;;;;;14.07;58.61;101859.75;5023985;28;19924;-49
2022/05/05 10:01:08;;;;;;;;;;;;;;;14.05;58.74;101861.63;5029086;28;19913;-51
2022/05/05 10:04:05;;;;;;;;;;;;;;;14.05;58.79;101856.34;5025694;28;20403;-56
2022/05/05 10:06:30;;;;;;;;;;;;;;;14.08;58.86;101846.44;5026687;28;20560;-55
2022/05/05 10:08:59;;;;;;;;;;;;;;;14.12;58.53;101853.25;5021403;28;20004;-57
2022/05/05 10:11:25;;;;;;;;;;;;;;;14.14;58.59;101850.56;5020414;28;19913;-55
2022/05/05 10:13:50;;;;;;;;;;;;;;;14.20;58.49;101852.84;5029328;28;19929;-56
2022/05/05 10:16:18;;;;;;;;;;;;;;;14.21;58.29;101851.91;5021924;28;20360;-58
2022/05/05 10:18:43;;;;;;;;;;;;;;;14.21;58.29;101840.47;5025290;28;19925;-58
2022/05/05 10:21:14;;;;;;;;;;;;;;;14.23;58.26;101850.03;5020631;28;19960;-53
2022/05/05 10:23:49;;;;;;;;;;;;;;;14.25;58.02;101844.63;5024239;28;19923;-58
2022/05/05 10:26:20;;;;;;;;;;;;;;;14.35;58.16;101856.44;5008719;28;19921;-55
2022/05/05 10:28:49;;;;;;;;;;;;;;;14.39;57.56;101859.75;5028636;28;20261;-52
2022/05/05 10:31:37;;;;;;;;;;;;;;;14.42;57.42;101859.59;5025880;28;19944;-52
2022/05/05 10:34:06;;;;;;;;;;;;;;;14.44;57.18;101868.31;5025819;28;20008;-52
2022/05/05 10:36:31;;;;;;;;;;;;;;;14.44;57.24;101870.97;5025062;28;19916;-51
2022/05/05 10:38:57;;;;;;;;;;;;;;;14.46;57.18;101869.94;5028214;28;19931;-50
2022/05/05 10:41:26;;;;;;;;;;;;;;;14.52;57.02;101868.72;4993842;28;19999;-51
2022/05/05 10:44:11;;;;;;;;;;;;;;;14.52;56.75;101867.88;5025780;28;20004;-57
2022/05/05 10:46:52;;;;;;;;;;;;;;;14.55;56.81;101865.91;5024259;28;19996;-59
2022/05/05 10:49:30;;;;;;;;;;;;;;;14.60;56.65;101861.19;5025959;28;19920;-56
2022/05/05 10:52:10;;;;;;;;;;;;;;;14.67;56.66;101874.09;5019527;28;20292;-57
2022/05/05 10:54:36;;;;;;;;;;;;;;;14.74;56.19;101871.03;5006701;28;20078;-56
2022/05/05 10:57:20;;;;;;;;;;;;;;;14.77;56.24;101875.28;5023213;28;20392;-55
2022/05/05 11:00:04;;;;;;;;;;;;;;;14.83;55.72;101868.78;5022185;28;20340;-58
2022/05/05 11:02:29;;;;;;;;;;;;;;;14.79;55.41;101873.41;5026439;28;19935;-58
2022/05/05 11:05:14;;;;;;;;;;;;;;;14.84;55.58;101876.66;5020148;28;19921;-53
2022/05/05 11:07:40;;;;;;;;;;;;;;;14.87;55.30;101873.84;5022447;28;19921;-58
2022/05/05 11:10:06;;;;;;;;;;;;;;;14.91;55.13;101874.50;5024314;28;20415;-58
2022/05/05 11:12:32;;;;;;;;;;;;;;;14.99;55.05;101882.84;5005616;28;20377;-53
2022/05/05 11:23:28;;;;;;;;;;;;;;;15.13;53.65;101891.78;5022510;28;20028;-58
2022/05/05 11:25:54;;;;;;;;;;;;;;;15.18;53.82;101889.72;5028893;28;19975;-55
2022/05/05 11:28:19;;;;;;;;;;;;;;;15.28;53.49;101885.56;5025181;28;19960;-58
2022/05/05 11:30:45;;;;;;;;;;;;;;;15.35;53.38;101880.78;5025611;28;19956;-59
2022/05/05 11:33:11;;;;;;;;;;;;;;;15.40;52.04;101881.34;5024756;28;20273;-55
2022/05/05 11:35:36;;;;;;;;;;;;;;;15.41;52.38;101875.09;5023997;28;19972;-58
2022/05/05 11:38:02;;;;;;;;;;;;;;;15.42;50.98;101875.97;5021685;28;19924;-57
2022/05/05 11:40:34;;;;;;;;;;;;;;;15.47;51.42;101873.88;5024917;28;19920;-56
2022/05/05 11:45:43;;;;;;;;;;;;;;;15.67;50.60;101870.00;5025802;28;19924;-54
2022/05/05 11:48:15;;;;;;;;;;;;;;;15.76;50.46;101881.84;5022552;28;20305;-55
2022/05/05 11:50:44;;;;;;;;;;;;;;;15.77;50.65;101876.47;5019549;28;19916;-54
2022/05/05 11:53:18;;;;;;;;;;;;;;;15.81;50.38;101877.13;5028401;28;19917;-52
2022/05/05 11:55:48;;;;;;;;;;;;;;;15.82;50.15;101877.00;5026659;28;19912;-55
2022/05/05 12:01:36;;;;;;;;;;;;;;;15.82;49.15;101884.97;5027259;28;20250;-50
2022/05/05 12:03:56;;;;;;;;;;;;;;;15.82;49.86;101884.97;5023901;28;19928;-54
2022/05/05 12:06:23;;;;;;;;;;;;;;;15.94;49.85;101887.88;5028499;28;19916;-52
2022/05/05 12:08:48;;;;;;;;;;;;;;;15.99;49.29;101896.38;5028501;28;20028;-51
2022/05/05 12:11:14;;;;;;;;;;;;;;;16.03;49.09;101889.09;5007034;28;20672;-51
2022/05/05 12:13:40;;;;;;;;;;;;;;;16.03;48.81;101894.41;5024397;28;19917;-52
2022/05/05 12:16:05;;;;;;;;;;;;;;;16.07;49.31;101894.13;5025714;28;19913;-54
2022/05/05 12:18:31;;;;;;;;;;;;;;;16.18;49.36;101895.22;5028863;28;19925;-55
2022/05/05 12:20:57;;;;;;;;;;;;;;;16.26;49.01;101888.47;5027072;28;19931;-57
2022/05/05 12:23:24;;;;;;;;;;;;;;;16.33;48.85;101883.63;5024754;28;19929;-54
2022/05/05 12:25:50;;;;;;;;;;;;;;;16.41;48.96;101886.63;5025257;28;20027;-55
2022/05/05 12:28:15;;;;;;;;;;;;;;;16.48;48.64;101887.13;5032438;28;20416;-57
2022/05/05 12:30:42;;;;;;;;;;;;;;;16.51;48.51;101880.75;5029263;28;19912;-52
2022/05/05 12:33:08;;;;;;;;;;;;;;;16.56;48.35;101886.63;5027392;28;20385;-58
2022/05/05 12:35:35;;;;;;;;;;;;;;;16.66;48.49;101894.81;5026198;28;20376;-52
2022/05/05 12:38:02;;;;;;;;;;;;;;;16.74;48.33;101906.66;5030607;28;19956;-53
2022/05/05 12:40:27;;;;;;;;;;;;;;;16.77;48.09;101898.47;5027177;28;19944;-55
2022/05/05 12:42:59;;;;;;;;;;;;;;;16.83;48.27;101885.75;5028525;28;19961;-57
2022/05/05 12:45:27;;;;;;;;;;;;;;;16.89;48.24;101894.19;5026702;28;19935;-58
2022/05/05 12:47:53;;;;;;;;;;;;;;;16.95;48.05;101895.59;5024972;28;19913;-58
2022/05/05 12:50:40;;;;;;;;;;;;;;;16.96;48.07;101891.13;5027233;28;20506;-58
2022/05/05 13:01:43;;;;;;;;;;;;;;;17.33;47.32;101889.47;5009319;28;19928;-49
2022/05/05 13:04:10;;;;;;;;;;;;;;;17.41;47.71;101902.25;5026615;28;19917;-55
2022/05/05 13:06:37;;;;;;;;;;;;;;;17.48;47.04;101894.72;5029236;28;20014;-56
2022/05/05 13:09:04;;;;;;;;;;;;;;;17.51;46.94;101894.50;5022324;28;19929;-58
2022/05/05 13:11:30;;;;;;;;;;;;;;;17.54;46.96;101888.97;5031052;28;20526;-54
2022/05/05 13:13:55;;;;;;;;;;;;;;;17.57;46.53;101886.09;5017412;28;19917;-55
2022/05/05 13:16:21;;;;;;;;;;;;;;;17.58;46.56;101881.63;5025799;28;20314;-56
2022/05/05 13:18:46;;;;;;;;;;;;;;;17.64;46.50;101887.38;5023574;28;19913;-58
2022/05/05 13:21:11;;;;;;;;;;;;;;;17.66;46.00;101874.81;5027439;28;19921;-58
2022/05/05 13:23:37;;;;;;;;;;;;;;;17.65;46.00;101873.09;5028374;28;19929;-55
2022/05/05 13:26:03;;;;;;;;;;;;;;;17.65;46.18;101870.44;5027593;28;19925;-55
2022/05/05 13:28:28;;;;;;;;;;;;;;;17.67;45.94;101865.03;5023585;28;20486;-55